Skip Navigation Links Skip Navigation Links

Current Weather

Illinois Valley Rgnl-Walter A Duncan Field, Peru, Ill.

For information only: do not use for flight planning or navigation.
Latest weather
Observation time Sunday, October 13, 2019 5:55 PM CDT
Local time Sunday, October 13, 2019 6:06 PM CDT
Flight conditions Visual Meteorological Conditions
Winds
Wind direction Northwest (320°)
Wind speed 16 mph
Wind gusting to 21 mph
Visibility 10 mi.
Sky condition
Ceiling 6,000 ft. broken clouds
Cloud layer broken clouds 6,000 ft.
Temperature 49°F
Dewpoint 33°F
Altimeter 29.89 in.Hg
Derived measurements
Relative humidity 53%
Wind chill 43°F
Density altitude 127 ft.
Remarks
Fully automated report.
Automated weather observing station with precipitation discriminator.
METAR KVYS 132255Z AUTO 32014G18KT 10SM BKN060 10/00 A2989 RMK AO2 T00950003

Settings

Location code

InnerDrive.Weather 4.0.6770.0 Release CLR 4.0.30319.42000
Copyright ©2018 Inner Drive Technology. All rights reserved. Portions Copyright ©1986-2018 David Braverman.

Find weather

Site navigation


Skip Navigation Links

Place info

Page info

PayPal - The safer, easier way to pay online!

Return home.

Copyright ©2019 Inner Drive Technology. Purveyors of fine, hand-crafted computer software. Page printed 2019-10-13T23:06:11 UTC.